sensor_id;sensor_type;location;lat;lon;timestamp;P1;durP1;ratioP1;P2;durP2;ratioP2
70505;SDS011;58032;49.820;6.274;2023-08-01T00:00:43;2.30;;;0.57;;
70505;SDS011;58032;49.820;6.274;2023-08-01T00:03:10;2.57;;;0.60;;
70505;SDS011;58032;49.820;6.274;2023-08-01T00:05:37;2.22;;;0.57;;
70505;SDS011;58032;49.820;6.274;2023-08-01T00:08:05;2.42;;;0.35;;
70505;SDS011;58032;49.820;6.274;2023-08-01T00:10:32;3.75;;;0.50;;
70505;SDS011;58032;49.820;6.274;2023-08-01T00:12:58;1.88;;;0.40;;
70505;SDS011;58032;49.820;6.274;2023-08-01T00:15:27;2.23;;;0.30;;
70505;SDS011;58032;49.820;6.274;2023-08-01T00:17:54;3.13;;;0.57;;
70505;SDS011;58032;49.820;6.274;2023-08-01T00:20:23;1.63;;;0.38;;
70505;SDS011;58032;49.820;6.274;2023-08-01T00:22:51;2.53;;;0.40;;
70505;SDS011;58032;49.820;6.274;2023-08-01T00:25:18;2.65;;;0.40;;
70505;SDS011;58032;49.820;6.274;2023-08-01T00:27:45;2.87;;;0.50;;
70505;SDS011;58032;49.820;6.274;2023-08-01T00:30:12;3.55;;;0.40;;
70505;SDS011;58032;49.820;6.274;2023-08-01T00:32:39;1.60;;;0.30;;
70505;SDS011;58032;49.820;6.274;2023-08-01T00:35:06;2.50;;;0.40;;
70505;SDS011;58032;49.820;6.274;2023-08-01T00:37:33;2.28;;;0.30;;
70505;SDS011;58032;49.820;6.274;2023-08-01T00:40:00;1.50;;;0.30;;
70505;SDS011;58032;49.820;6.274;2023-08-01T00:42:30;1.77;;;0.40;;
70505;SDS011;58032;49.820;6.274;2023-08-01T00:44:57;4.53;;;0.38;;
70505;SDS011;58032;49.820;6.274;2023-08-01T00:47:24;2.20;;;0.30;;
70505;SDS011;58032;49.820;6.274;2023-08-01T00:49:51;2.22;;;0.38;;
70505;SDS011;58032;49.820;6.274;2023-08-01T00:52:19;2.13;;;0.20;;
70505;SDS011;58032;49.820;6.274;2023-08-01T00:54:46;1.40;;;0.30;;
70505;SDS011;58032;49.820;6.274;2023-08-01T00:57:13;1.90;;;0.32;;
70505;SDS011;58032;49.820;6.274;2023-08-01T00:59:40;1.77;;;0.40;;
70505;SDS011;58032;49.820;6.274;2023-08-01T01:02:07;2.35;;;0.40;;
70505;SDS011;58032;49.820;6.274;2023-08-01T01:04:34;1.70;;;0.30;;
70505;SDS011;58032;49.820;6.274;2023-08-01T01:07:06;2.38;;;0.32;;
70505;SDS011;58032;49.820;6.274;2023-08-01T01:09:33;1.65;;;0.30;;
70505;SDS011;58032;49.820;6.274;2023-08-01T01:12:00;1.40;;;0.30;;
70505;SDS011;58032;49.820;6.274;2023-08-01T01:14:27;2.22;;;0.40;;
70505;SDS011;58032;49.820;6.274;2023-08-01T01:16:55;1.50;;;0.30;;
70505;SDS011;58032;49.820;6.274;2023-08-01T01:19:22;2.20;;;0.32;;
70505;SDS011;58032;49.820;6.274;2023-08-01T01:21:49;1.90;;;0.32;;
70505;SDS011;58032;49.820;6.274;2023-08-01T01:24:17;2.15;;;0.30;;
70505;SDS011;58032;49.820;6.274;2023-08-01T01:26:46;1.88;;;0.40;;
70505;SDS011;58032;49.820;6.274;2023-08-01T01:29:13;1.67;;;0.33;;
70505;SDS011;58032;49.820;6.274;2023-08-01T01:31:41;1.70;;;0.40;;
70505;SDS011;58032;49.820;6.274;2023-08-01T01:34:09;2.15;;;0.40;;
70505;SDS011;58032;49.820;6.274;2023-08-01T01:36:36;2.13;;;0.60;;
70505;SDS011;58032;49.820;6.274;2023-08-01T01:39:05;2.60;;;0.63;;
70505;SDS011;58032;49.820;6.274;2023-08-01T01:41:31;2.30;;;0.60;;
70505;SDS011;58032;49.820;6.274;2023-08-01T01:43:58;2.58;;;0.40;;
70505;SDS011;58032;49.820;6.274;2023-08-01T01:46:25;3.03;;;0.70;;
70505;SDS011;58032;49.820;6.274;2023-08-01T01:48:52;2.78;;;0.50;;
70505;SDS011;58032;49.820;6.274;2023-08-01T01:51:20;2.65;;;0.60;;
70505;SDS011;58032;49.820;6.274;2023-08-01T01:53:48;2.20;;;0.40;;
70505;SDS011;58032;49.820;6.274;2023-08-01T01:56:15;2.83;;;0.45;;
70505;SDS011;58032;49.820;6.274;2023-08-01T01:58:42;2.78;;;0.60;;
70505;SDS011;58032;49.820;6.274;2023-08-01T02:01:09;2.10;;;0.50;;
70505;SDS011;58032;49.820;6.274;2023-08-01T02:03:37;2.63;;;0.32;;
70505;SDS011;58032;49.820;6.274;2023-08-01T02:06:04;2.23;;;0.50;;
70505;SDS011;58032;49.820;6.274;2023-08-01T02:08:31;2.85;;;0.40;;
70505;SDS011;58032;49.820;6.274;2023-08-01T02:10:58;1.85;;;0.50;;
70505;SDS011;58032;49.820;6.274;2023-08-01T02:13:29;2.03;;;0.30;;
70505;SDS011;58032;49.820;6.274;2023-08-01T02:15:57;1.50;;;0.30;;
70505;SDS011;58032;49.820;6.274;2023-08-01T02:18:24;1.83;;;0.30;;
70505;SDS011;58032;49.820;6.274;2023-08-01T02:20:51;1.95;;;0.30;;
70505;SDS011;58032;49.820;6.274;2023-08-01T02:23:19;1.98;;;0.47;;
70505;SDS011;58032;49.820;6.274;2023-08-01T02:25:46;4.18;;;0.30;;
70505;SDS011;58032;49.820;6.274;2023-08-01T02:28:13;2.42;;;0.30;;
70505;SDS011;58032;49.820;6.274;2023-08-01T02:30:40;1.83;;;0.40;;
70505;SDS011;58032;49.820;6.274;2023-08-01T02:33:06;1.30;;;0.20;;
70505;SDS011;58032;49.820;6.274;2023-08-01T02:35:33;1.65;;;0.22;;
70505;SDS011;58032;49.820;6.274;2023-08-01T02:38:00;1.90;;;0.30;;
70505;SDS011;58032;49.820;6.274;2023-08-01T02:40:29;1.30;;;0.25;;
70505;SDS011;58032;49.820;6.274;2023-08-01T02:42:56;1.40;;;0.20;;
70505;SDS011;58032;49.820;6.274;2023-08-01T02:45:23;1.23;;;0.20;;
70505;SDS011;58032;49.820;6.274;2023-08-01T02:47:50;1.30;;;0.20;;
70505;SDS011;58032;49.820;6.274;2023-08-01T02:50:17;1.45;;;0.20;;
70505;SDS011;58032;49.820;6.274;2023-08-01T02:52:44;1.30;;;0.20;;
70505;SDS011;58032;49.820;6.274;2023-08-01T02:55:11;1.27;;;0.20;;
70505;SDS011;58032;49.820;6.274;2023-08-01T02:57:38;1.30;;;0.20;;
70505;SDS011;58032;49.820;6.274;2023-08-01T03:00:05;3.92;;;0.40;;
70505;SDS011;58032;49.820;6.274;2023-08-01T03:02:32;1.33;;;0.20;;
70505;SDS011;58032;49.820;6.274;2023-08-01T03:04:59;1.55;;;0.22;;
70505;SDS011;58032;49.820;6.274;2023-08-01T03:07:26;3.20;;;0.33;;
70505;SDS011;58032;49.820;6.274;2023-08-01T03:09:53;1.50;;;0.20;;
70505;SDS011;58032;49.820;6.274;2023-08-01T03:12:21;1.10;;;0.20;;
70505;SDS011;58032;49.820;6.274;2023-08-01T03:14:48;1.30;;;0.30;;
70505;SDS011;58032;49.820;6.274;2023-08-01T03:17:15;1.70;;;0.10;;
70505;SDS011;58032;49.820;6.274;2023-08-01T03:19:43;0.93;;;0.13;;
70505;SDS011;58032;49.820;6.274;2023-08-01T03:22:10;1.20;;;0.20;;
70505;SDS011;58032;49.820;6.274;2023-08-01T03:24:37;1.33;;;0.20;;
70505;SDS011;58032;49.820;6.274;2023-08-01T03:27:04;1.20;;;0.20;;
70505;SDS011;58032;49.820;6.274;2023-08-01T03:29:31;2.42;;;0.20;;
70505;SDS011;58032;49.820;6.274;2023-08-01T03:31:59;0.83;;;0.10;;
70505;SDS011;58032;49.820;6.274;2023-08-01T03:34:26;1.00;;;0.20;;
70505;SDS011;58032;49.820;6.274;2023-08-01T03:36:53;1.75;;;0.20;;
70505;SDS011;58032;49.820;6.274;2023-08-01T03:39:20;1.02;;;0.20;;
70505;SDS011;58032;49.820;6.274;2023-08-01T03:41:47;1.30;;;0.20;;
70505;SDS011;58032;49.820;6.274;2023-08-01T03:44:14;0.80;;;0.10;;
70505;SDS011;58032;49.820;6.274;2023-08-01T03:46:42;2.70;;;0.20;;
70505;SDS011;58032;49.820;6.274;2023-08-01T03:49:09;1.27;;;0.10;;
70505;SDS011;58032;49.820;6.274;2023-08-01T03:51:36;1.27;;;0.20;;
70505;SDS011;58032;49.820;6.274;2023-08-01T03:54:03;1.10;;;0.15;;
70505;SDS011;58032;49.820;6.274;2023-08-01T03:56:37;2.03;;;0.20;;
70505;SDS011;58032;49.820;6.274;2023-08-01T03:59:06;1.13;;;0.10;;
70505;SDS011;58032;49.820;6.274;2023-08-01T04:01:34;1.10;;;0.20;;
70505;SDS011;58032;49.820;6.274;2023-08-01T04:04:01;1.05;;;0.20;;
70505;SDS011;58032;49.820;6.274;2023-08-01T04:06:28;1.10;;;0.20;;
70505;SDS011;58032;49.820;6.274;2023-08-01T04:08:55;0.80;;;0.10;;
70505;SDS011;58032;49.820;6.274;2023-08-01T04:11:23;1.63;;;0.20;;
70505;SDS011;58032;49.820;6.274;2023-08-01T04:13:50;1.13;;;0.20;;
70505;SDS011;58032;49.820;6.274;2023-08-01T04:16:16;1.00;;;0.15;;
70505;SDS011;58032;49.820;6.274;2023-08-01T04:18:43;1.08;;;0.20;;
70505;SDS011;58032;49.820;6.274;2023-08-01T04:21:12;1.10;;;0.20;;
70505;SDS011;58032;49.820;6.274;2023-08-01T04:23:40;1.10;;;0.20;;
70505;SDS011;58032;49.820;6.274;2023-08-01T04:26:07;1.20;;;0.20;;
70505;SDS011;58032;49.820;6.274;2023-08-01T04:28:34;0.90;;;0.20;;
70505;SDS011;58032;49.820;6.274;2023-08-01T04:31:01;0.90;;;0.10;;
70505;SDS011;58032;49.820;6.274;2023-08-01T04:33:28;0.90;;;0.10;;
70505;SDS011;58032;49.820;6.274;2023-08-01T04:35:55;0.80;;;0.10;;
70505;SDS011;58032;49.820;6.274;2023-08-01T04:38:22;0.70;;;0.10;;
70505;SDS011;58032;49.820;6.274;2023-08-01T04:40:49;0.90;;;0.10;;
70505;SDS011;58032;49.820;6.274;2023-08-01T04:43:16;0.82;;;0.10;;
70505;SDS011;58032;49.820;6.274;2023-08-01T04:45:42;0.80;;;0.10;;
70505;SDS011;58032;49.820;6.274;2023-08-01T04:48:09;0.77;;;0.10;;
70505;SDS011;58032;49.820;6.274;2023-08-01T04:50:36;1.00;;;0.20;;
70505;SDS011;58032;49.820;6.274;2023-08-01T04:53:03;1.30;;;0.20;;
70505;SDS011;58032;49.820;6.274;2023-08-01T04:55:30;0.85;;;0.10;;
70505;SDS011;58032;49.820;6.274;2023-08-01T04:57:57;1.00;;;0.10;;
70505;SDS011;58032;49.820;6.274;2023-08-01T05:00:24;2.45;;;0.20;;
70505;SDS011;58032;49.820;6.274;2023-08-01T05:02:51;0.82;;;0.10;;
70505;SDS011;58032;49.820;6.274;2023-08-01T05:05:18;0.80;;;0.10;;
70505;SDS011;58032;49.820;6.274;2023-08-01T05:07:45;1.70;;;0.10;;
70505;SDS011;58032;49.820;6.274;2023-08-01T05:10:12;0.90;;;0.10;;
70505;SDS011;58032;49.820;6.274;2023-08-01T05:12:39;1.23;;;0.20;;
70505;SDS011;58032;49.820;6.274;2023-08-01T05:15:06;1.00;;;0.20;;
70505;SDS011;58032;49.820;6.274;2023-08-01T05:17:33;1.00;;;0.20;;
70505;SDS011;58032;49.820;6.274;2023-08-01T05:20:00;2.25;;;0.20;;
70505;SDS011;58032;49.820;6.274;2023-08-01T05:22:28;1.50;;;0.20;;
70505;SDS011;58032;49.820;6.274;2023-08-01T05:24:54;1.48;;;0.20;;
70505;SDS011;58032;49.820;6.274;2023-08-01T05:27:21;2.13;;;0.30;;
70505;SDS011;58032;49.820;6.274;2023-08-01T05:29:48;2.10;;;0.20;;
70505;SDS011;58032;49.820;6.274;2023-08-01T05:32:15;1.40;;;0.20;;
70505;SDS011;58032;49.820;6.274;2023-08-01T05:34:42;2.17;;;0.30;;
70505;SDS011;58032;49.820;6.274;2023-08-01T05:37:09;1.70;;;0.30;;
70505;SDS011;58032;49.820;6.274;2023-08-01T05:39:36;2.00;;;0.40;;
70505;SDS011;58032;49.820;6.274;2023-08-01T05:42:03;2.00;;;0.30;;
70505;SDS011;58032;49.820;6.274;2023-08-01T05:44:34;1.55;;;0.20;;
70505;SDS011;58032;49.820;6.274;2023-08-01T05:47:02;4.33;;;0.40;;
70505;SDS011;58032;49.820;6.274;2023-08-01T05:49:29;2.90;;;0.40;;
70505;SDS011;58032;49.820;6.274;2023-08-01T05:51:58;2.25;;;0.40;;
70505;SDS011;58032;49.820;6.274;2023-08-01T05:54:25;2.22;;;0.40;;
70505;SDS011;58032;49.820;6.274;2023-08-01T05:56:53;3.35;;;0.50;;
70505;SDS011;58032;49.820;6.274;2023-08-01T05:59:20;3.17;;;0.60;;
70505;SDS011;58032;49.820;6.274;2023-08-01T06:01:47;2.38;;;0.65;;
70505;SDS011;58032;49.820;6.274;2023-08-01T06:04:14;2.05;;;0.45;;
70505;SDS011;58032;49.820;6.274;2023-08-01T06:06:41;3.20;;;0.73;;
70505;SDS011;58032;49.820;6.274;2023-08-01T06:09:08;2.47;;;0.60;;
70505;SDS011;58032;49.820;6.274;2023-08-01T06:11:35;2.27;;;0.60;;
70505;SDS011;58032;49.820;6.274;2023-08-01T06:14:02;2.63;;;0.60;;
70505;SDS011;58032;49.820;6.274;2023-08-01T06:16:29;3.20;;;0.70;;
70505;SDS011;58032;49.820;6.274;2023-08-01T06:18:55;2.53;;;0.70;;
70505;SDS011;58032;49.820;6.274;2023-08-01T06:21:23;3.28;;;1.05;;
70505;SDS011;58032;49.820;6.274;2023-08-01T06:23:50;5.33;;;0.83;;
70505;SDS011;58032;49.820;6.274;2023-08-01T06:26:17;2.65;;;0.70;;
70505;SDS011;58032;49.820;6.274;2023-08-01T06:28:43;2.10;;;0.80;;
70505;SDS011;58032;49.820;6.274;2023-08-01T06:31:10;3.67;;;0.90;;
70505;SDS011;58032;49.820;6.274;2023-08-01T06:33:37;4.75;;;1.10;;
70505;SDS011;58032;49.820;6.274;2023-08-01T06:36:05;3.90;;;1.07;;
70505;SDS011;58032;49.820;6.274;2023-08-01T06:38:32;4.55;;;1.02;;
70505;SDS011;58032;49.820;6.274;2023-08-01T06:40:58;4.50;;;0.90;;
70505;SDS011;58032;49.820;6.274;2023-08-01T06:43:25;3.05;;;0.85;;
70505;SDS011;58032;49.820;6.274;2023-08-01T06:45:52;4.78;;;1.05;;
70505;SDS011;58032;49.820;6.274;2023-08-01T06:48:19;2.90;;;1.03;;
70505;SDS011;58032;49.820;6.274;2023-08-01T06:50:46;3.47;;;1.17;;
70505;SDS011;58032;49.820;6.274;2023-08-01T06:53:13;3.88;;;1.33;;
70505;SDS011;58032;49.820;6.274;2023-08-01T06:55:40;3.08;;;0.82;;
70505;SDS011;58032;49.820;6.274;2023-08-01T06:58:06;3.75;;;0.95;;
70505;SDS011;58032;49.820;6.274;2023-08-01T07:00:33;4.40;;;1.10;;
70505;SDS011;58032;49.820;6.274;2023-08-01T07:03:00;4.18;;;1.23;;
70505;SDS011;58032;49.820;6.274;2023-08-01T07:05:27;4.03;;;1.13;;
70505;SDS011;58032;49.820;6.274;2023-08-01T07:07:54;4.50;;;1.33;;
70505;SDS011;58032;49.820;6.274;2023-08-01T07:10:21;3.88;;;1.00;;
70505;SDS011;58032;49.820;6.274;2023-08-01T07:12:48;3.83;;;0.93;;
70505;SDS011;58032;49.820;6.274;2023-08-01T07:15:15;4.93;;;1.33;;
70505;SDS011;58032;49.820;6.274;2023-08-01T07:17:41;3.45;;;1.05;;
70505;SDS011;58032;49.820;6.274;2023-08-01T07:20:08;4.65;;;1.02;;
70505;SDS011;58032;49.820;6.274;2023-08-01T07:22:36;4.85;;;1.20;;
70505;SDS011;58032;49.820;6.274;2023-08-01T07:25:02;3.63;;;1.20;;
70505;SDS011;58032;49.820;6.274;2023-08-01T07:27:30;5.95;;;1.30;;
70505;SDS011;58032;49.820;6.274;2023-08-01T07:29:56;4.15;;;0.90;;
70505;SDS011;58032;49.820;6.274;2023-08-01T07:32:23;4.32;;;1.00;;
70505;SDS011;58032;49.820;6.274;2023-08-01T07:34:54;2.20;;;0.60;;
70505;SDS011;58032;49.820;6.274;2023-08-01T07:37:21;2.73;;;0.70;;
70505;SDS011;58032;49.820;6.274;2023-08-01T07:39:49;2.30;;;0.50;;
70505;SDS011;58032;49.820;6.274;2023-08-01T07:42:16;3.72;;;0.80;;
70505;SDS011;58032;49.820;6.274;2023-08-01T07:44:43;4.43;;;0.90;;
70505;SDS011;58032;49.820;6.274;2023-08-01T07:47:09;3.42;;;0.60;;
70505;SDS011;58032;49.820;6.274;2023-08-01T07:49:37;3.27;;;0.70;;
70505;SDS011;58032;49.820;6.274;2023-08-01T07:52:03;5.28;;;1.20;;
70505;SDS011;58032;49.820;6.274;2023-08-01T07:54:31;3.28;;;1.20;;
70505;SDS011;58032;49.820;6.274;2023-08-01T07:56:58;3.25;;;1.10;;
70505;SDS011;58032;49.820;6.274;2023-08-01T07:59:24;3.10;;;1.08;;
70505;SDS011;58032;49.820;6.274;2023-08-01T08:01:51;3.03;;;0.63;;
70505;SDS011;58032;49.820;6.274;2023-08-01T08:04:19;3.15;;;1.05;;
70505;SDS011;58032;49.820;6.274;2023-08-01T08:06:46;3.60;;;0.82;;
70505;SDS011;58032;49.820;6.274;2023-08-01T08:09:13;3.88;;;0.95;;
70505;SDS011;58032;49.820;6.274;2023-08-01T08:11:40;3.45;;;0.90;;
70505;SDS011;58032;49.820;6.274;2023-08-01T08:14:07;3.70;;;1.00;;
70505;SDS011;58032;49.820;6.274;2023-08-01T08:16:34;2.63;;;0.88;;
70505;SDS011;58032;49.820;6.274;2023-08-01T08:19:01;5.30;;;1.10;;
70505;SDS011;58032;49.820;6.274;2023-08-01T08:21:28;3.78;;;1.10;;
70505;SDS011;58032;49.820;6.274;2023-08-01T08:23:54;3.47;;;1.13;;
70505;SDS011;58032;49.820;6.274;2023-08-01T08:26:23;3.30;;;1.20;;
70505;SDS011;58032;49.820;6.274;2023-08-01T08:28:50;5.75;;;1.42;;
70505;SDS011;58032;49.820;6.274;2023-08-01T08:31:17;4.90;;;1.40;;
70505;SDS011;58032;49.820;6.274;2023-08-01T08:33:44;4.28;;;1.30;;
70505;SDS011;58032;49.820;6.274;2023-08-01T08:36:11;4.75;;;1.20;;
70505;SDS011;58032;49.820;6.274;2023-08-01T08:38:38;5.00;;;1.40;;
70505;SDS011;58032;49.820;6.274;2023-08-01T08:41:13;5.38;;;1.55;;
70505;SDS011;58032;49.820;6.274;2023-08-01T08:43:46;4.78;;;1.38;;
70505;SDS011;58032;49.820;6.274;2023-08-01T08:46:16;4.47;;;1.23;;
70505;SDS011;58032;49.820;6.274;2023-08-01T08:48:43;6.63;;;1.20;;
70505;SDS011;58032;49.820;6.274;2023-08-01T08:51:12;5.13;;;1.33;;
70505;SDS011;58032;49.820;6.274;2023-08-01T08:53:40;5.05;;;1.13;;
70505;SDS011;58032;49.820;6.274;2023-08-01T08:56:09;3.97;;;1.20;;
70505;SDS011;58032;49.820;6.274;2023-08-01T08:58:36;5.60;;;1.40;;
70505;SDS011;58032;49.820;6.274;2023-08-01T09:01:05;3.83;;;1.30;;
70505;SDS011;58032;49.820;6.274;2023-08-01T09:03:33;5.57;;;1.60;;
70505;SDS011;58032;49.820;6.274;2023-08-01T09:06:11;3.85;;;1.20;;
70505;SDS011;58032;49.820;6.274;2023-08-01T09:08:44;5.28;;;1.63;;
70505;SDS011;58032;49.820;6.274;2023-08-01T09:11:22;6.60;;;1.42;;
70505;SDS011;58032;49.820;6.274;2023-08-01T09:13:49;7.70;;;1.73;;
70505;SDS011;58032;49.820;6.274;2023-08-01T09:16:17;5.30;;;1.63;;
70505;SDS011;58032;49.820;6.274;2023-08-01T09:18:50;5.72;;;1.25;;
70505;SDS011;58032;49.820;6.274;2023-08-01T09:21:18;3.03;;;1.30;;
70505;SDS011;58032;49.820;6.274;2023-08-01T09:23:46;5.35;;;1.40;;
70505;SDS011;58032;49.820;6.274;2023-08-01T09:26:17;4.43;;;1.65;;
70505;SDS011;58032;49.820;6.274;2023-08-01T09:28:56;3.70;;;1.40;;
70505;SDS011;58032;49.820;6.274;2023-08-01T09:31:27;3.60;;;1.20;;
70505;SDS011;58032;49.820;6.274;2023-08-01T09:33:57;4.55;;;1.33;;
70505;SDS011;58032;49.820;6.274;2023-08-01T09:36:32;3.76;;;1.24;;
70505;SDS011;58032;49.820;6.274;2023-08-01T09:39:01;5.75;;;1.42;;
70505;SDS011;58032;49.820;6.274;2023-08-01T09:41:30;5.80;;;1.33;;
70505;SDS011;58032;49.820;6.274;2023-08-01T09:43:57;5.38;;;1.40;;
70505;SDS011;58032;49.820;6.274;2023-08-01T09:46:24;5.82;;;1.60;;
70505;SDS011;58032;49.820;6.274;2023-08-01T09:48:52;4.22;;;1.10;;
70505;SDS011;58032;49.820;6.274;2023-08-01T09:51:19;4.32;;;1.40;;
70505;SDS011;58032;49.820;6.274;2023-08-01T09:53:47;4.27;;;1.27;;
70505;SDS011;58032;49.820;6.274;2023-08-01T09:56:21;4.78;;;1.30;;
70505;SDS011;58032;49.820;6.274;2023-08-01T09:58:50;4.97;;;1.23;;
70505;SDS011;58032;49.820;6.274;2023-08-01T10:01:21;5.18;;;1.30;;
70505;SDS011;58032;49.820;6.274;2023-08-01T10:03:50;5.40;;;1.40;;
70505;SDS011;58032;49.820;6.274;2023-08-01T10:06:23;9.67;;;1.40;;
70505;SDS011;58032;49.820;6.274;2023-08-01T10:08:54;5.43;;;1.38;;
70505;SDS011;58032;49.820;6.274;2023-08-01T10:11:22;6.32;;;1.40;;
70505;SDS011;58032;49.820;6.274;2023-08-01T10:13:49;5.45;;;1.50;;
70505;SDS011;58032;49.820;6.274;2023-08-01T10:16:16;6.00;;;1.55;;
70505;SDS011;58032;49.820;6.274;2023-08-01T10:18:43;3.83;;;1.13;;
70505;SDS011;58032;49.820;6.274;2023-08-01T10:21:14;4.63;;;1.23;;
70505;SDS011;58032;49.820;6.274;2023-08-01T10:23:43;4.97;;;1.50;;
70505;SDS011;58032;49.820;6.274;2023-08-01T10:26:12;5.32;;;1.08;;
70505;SDS011;58032;49.820;6.274;2023-08-01T10:28:41;4.40;;;0.85;;
70505;SDS011;58032;49.820;6.274;2023-08-01T10:31:17;5.47;;;1.40;;
70505;SDS011;58032;49.820;6.274;2023-08-01T10:33:46;4.47;;;0.98;;
70505;SDS011;58032;49.820;6.274;2023-08-01T10:36:21;3.83;;;1.38;;
70505;SDS011;58032;49.820;6.274;2023-08-01T10:38:51;3.83;;;1.00;;
70505;SDS011;58032;49.820;6.274;2023-08-01T10:41:26;4.45;;;1.30;;
70505;SDS011;58032;49.820;6.274;2023-08-01T10:44:08;3.20;;;1.10;;
70505;SDS011;58032;49.820;6.274;2023-08-01T10:46:45;3.13;;;1.00;;
70505;SDS011;58032;49.820;6.274;2023-08-01T10:49:12;4.78;;;1.35;;
70505;SDS011;58032;49.820;6.274;2023-08-01T10:51:38;6.28;;;1.70;;
70505;SDS011;58032;49.820;6.274;2023-08-01T10:54:06;5.47;;;1.27;;
70505;SDS011;58032;49.820;6.274;2023-08-01T10:56:36;5.87;;;1.20;;
70505;SDS011;58032;49.820;6.274;2023-08-01T10:59:04;5.00;;;1.50;;
70505;SDS011;58032;49.820;6.274;2023-08-01T11:01:41;7.18;;;1.83;;
70505;SDS011;58032;49.820;6.274;2023-08-01T11:04:14;4.40;;;1.63;;
70505;SDS011;58032;49.820;6.274;2023-08-01T11:06:45;3.35;;;1.20;;
70505;SDS011;58032;49.820;6.274;2023-08-01T11:09:15;5.73;;;1.20;;
70505;SDS011;58032;49.820;6.274;2023-08-01T11:11:42;9.68;;;1.85;;
70505;SDS011;58032;49.820;6.274;2023-08-01T11:14:11;8.10;;;1.98;;
70505;SDS011;58032;49.820;6.274;2023-08-01T11:16:40;8.85;;;2.90;;
70505;SDS011;58032;49.820;6.274;2023-08-01T11:21:52;8.57;;;1.87;;
70505;SDS011;58032;49.820;6.274;2023-08-01T11:24:23;6.18;;;2.95;;
70505;SDS011;58032;49.820;6.274;2023-08-01T11:26:52;6.10;;;1.77;;
70505;SDS011;58032;49.820;6.274;2023-08-01T11:29:20;4.07;;;1.73;;
70505;SDS011;58032;49.820;6.274;2023-08-01T11:31:57;4.95;;;1.17;;
70505;SDS011;58032;49.820;6.274;2023-08-01T11:34:26;6.00;;;1.40;;
70505;SDS011;58032;49.820;6.274;2023-08-01T11:36:53;5.60;;;1.33;;
70505;SDS011;58032;49.820;6.274;2023-08-01T11:39:20;4.80;;;1.83;;
70505;SDS011;58032;49.820;6.274;2023-08-01T11:41:49;3.42;;;1.10;;
70505;SDS011;58032;49.820;6.274;2023-08-01T11:44:16;13.20;;;1.30;;
70505;SDS011;58032;49.820;6.274;2023-08-01T11:46:43;4.80;;;1.50;;
70505;SDS011;58032;49.820;6.274;2023-08-01T11:49:13;4.95;;;1.23;;
70505;SDS011;58032;49.820;6.274;2023-08-01T11:51:41;4.40;;;1.05;;
70505;SDS011;58032;49.820;6.274;2023-08-01T11:54:10;4.03;;;1.00;;
70505;SDS011;58032;49.820;6.274;2023-08-01T11:56:38;3.88;;;0.98;;
70505;SDS011;58032;49.820;6.274;2023-08-01T12:01:40;4.63;;;0.95;;
70505;SDS011;58032;49.820;6.274;2023-08-01T12:04:09;3.53;;;1.08;;
70505;SDS011;58032;49.820;6.274;2023-08-01T12:06:36;4.47;;;0.80;;
70505;SDS011;58032;49.820;6.274;2023-08-01T12:09:07;7.97;;;1.45;;
70505;SDS011;58032;49.820;6.274;2023-08-01T12:11:36;4.83;;;1.10;;
70505;SDS011;58032;49.820;6.274;2023-08-01T12:14:04;3.92;;;1.00;;
70505;SDS011;58032;49.820;6.274;2023-08-01T12:16:33;6.13;;;1.40;;
70505;SDS011;58032;49.820;6.274;2023-08-01T12:19:00;3.97;;;0.82;;
70505;SDS011;58032;49.820;6.274;2023-08-01T12:21:28;3.57;;;0.90;;
70505;SDS011;58032;49.820;6.274;2023-08-01T12:23:55;4.28;;;1.00;;
70505;SDS011;58032;49.820;6.274;2023-08-01T12:26:23;5.30;;;1.38;;
70505;SDS011;58032;49.820;6.274;2023-08-01T12:28:50;6.05;;;1.33;;
70505;SDS011;58032;49.820;6.274;2023-08-01T12:31:21;3.85;;;1.17;;
70505;SDS011;58032;49.820;6.274;2023-08-01T12:33:49;4.13;;;1.07;;
70505;SDS011;58032;49.820;6.274;2023-08-01T12:36:16;7.07;;;1.13;;
70505;SDS011;58032;49.820;6.274;2023-08-01T12:38:43;4.72;;;0.95;;
70505;SDS011;58032;49.820;6.274;2023-08-01T12:41:10;3.65;;;0.80;;
70505;SDS011;58032;49.820;6.274;2023-08-01T12:43:37;5.25;;;1.10;;
70505;SDS011;58032;49.820;6.274;2023-08-01T12:46:04;6.43;;;0.80;;
70505;SDS011;58032;49.820;6.274;2023-08-01T12:48:31;5.35;;;1.08;;
70505;SDS011;58032;49.820;6.274;2023-08-01T12:50:58;4.85;;;0.90;;
70505;SDS011;58032;49.820;6.274;2023-08-01T12:53:25;6.30;;;1.00;;
70505;SDS011;58032;49.820;6.274;2023-08-01T12:55:57;4.70;;;1.05;;
70505;SDS011;58032;49.820;6.274;2023-08-01T12:58:24;5.07;;;1.07;;
70505;SDS011;58032;49.820;6.274;2023-08-01T13:00:52;5.63;;;1.00;;
70505;SDS011;58032;49.820;6.274;2023-08-01T13:03:19;3.88;;;0.93;;
70505;SDS011;58032;49.820;6.274;2023-08-01T13:05:46;4.82;;;1.10;;
70505;SDS011;58032;49.820;6.274;2023-08-01T13:08:13;5.78;;;1.00;;
70505;SDS011;58032;49.820;6.274;2023-08-01T13:10:39;3.50;;;0.77;;
70505;SDS011;58032;49.820;6.274;2023-08-01T13:13:06;3.67;;;0.70;;
70505;SDS011;58032;49.820;6.274;2023-08-01T13:15:34;3.58;;;0.88;;
70505;SDS011;58032;49.820;6.274;2023-08-01T13:18:01;5.45;;;1.00;;
70505;SDS011;58032;49.820;6.274;2023-08-01T13:20:28;2.63;;;0.70;;
70505;SDS011;58032;49.820;6.274;2023-08-01T13:22:55;6.37;;;1.03;;
70505;SDS011;58032;49.820;6.274;2023-08-01T13:25:22;4.93;;;0.82;;
70505;SDS011;58032;49.820;6.274;2023-08-01T13:27:49;5.55;;;1.00;;
70505;SDS011;58032;49.820;6.274;2023-08-01T13:30:16;4.10;;;0.70;;
70505;SDS011;58032;49.820;6.274;2023-08-01T13:32:47;3.95;;;0.77;;
70505;SDS011;58032;49.820;6.274;2023-08-01T13:35:14;4.77;;;0.80;;
70505;SDS011;58032;49.820;6.274;2023-08-01T13:37:41;3.53;;;1.00;;
70505;SDS011;58032;49.820;6.274;2023-08-01T13:40:08;3.85;;;0.85;;
70505;SDS011;58032;49.820;6.274;2023-08-01T13:42:38;2.85;;;0.52;;
70505;SDS011;58032;49.820;6.274;2023-08-01T13:45:05;3.47;;;0.60;;
70505;SDS011;58032;49.820;6.274;2023-08-01T13:47:34;4.63;;;0.80;;
70505;SDS011;58032;49.820;6.274;2023-08-01T13:50:02;3.55;;;0.63;;
70505;SDS011;58032;49.820;6.274;2023-08-01T13:52:29;2.97;;;0.43;;
70505;SDS011;58032;49.820;6.274;2023-08-01T13:54:56;2.95;;;0.65;;
70505;SDS011;58032;49.820;6.274;2023-08-01T13:57:23;2.83;;;0.60;;
70505;SDS011;58032;49.820;6.274;2023-08-01T13:59:52;2.63;;;0.70;;
70505;SDS011;58032;49.820;6.274;2023-08-01T14:02:24;4.93;;;1.00;;
70505;SDS011;58032;49.820;6.274;2023-08-01T14:04:51;2.38;;;0.60;;
70505;SDS011;58032;49.820;6.274;2023-08-01T14:07:19;1.80;;;0.50;;
70505;SDS011;58032;49.820;6.274;2023-08-01T14:09:46;2.88;;;0.70;;
70505;SDS011;58032;49.820;6.274;2023-08-01T14:12:13;4.67;;;0.73;;
70505;SDS011;58032;49.820;6.274;2023-08-01T14:14:43;3.40;;;0.80;;
70505;SDS011;58032;49.820;6.274;2023-08-01T14:17:09;2.42;;;0.50;;
70505;SDS011;58032;49.820;6.274;2023-08-01T14:19:37;4.38;;;0.95;;
70505;SDS011;58032;49.820;6.274;2023-08-01T14:22:07;5.00;;;0.90;;
70505;SDS011;58032;49.820;6.274;2023-08-01T14:24:34;3.53;;;0.60;;
70505;SDS011;58032;49.820;6.274;2023-08-01T14:27:01;3.70;;;0.90;;
70505;SDS011;58032;49.820;6.274;2023-08-01T14:29:28;3.03;;;0.90;;
70505;SDS011;58032;49.820;6.274;2023-08-01T14:31:55;3.15;;;1.08;;
70505;SDS011;58032;49.820;6.274;2023-08-01T14:34:22;2.35;;;0.57;;
70505;SDS011;58032;49.820;6.274;2023-08-01T14:36:49;4.83;;;0.90;;
70505;SDS011;58032;49.820;6.274;2023-08-01T14:39:16;3.40;;;0.90;;
70505;SDS011;58032;49.820;6.274;2023-08-01T14:41:47;2.95;;;0.70;;
70505;SDS011;58032;49.820;6.274;2023-08-01T14:44:27;5.53;;;0.80;;
70505;SDS011;58032;49.820;6.274;2023-08-01T14:46:54;4.68;;;0.63;;
70505;SDS011;58032;49.820;6.274;2023-08-01T14:49:21;2.70;;;0.63;;
70505;SDS011;58032;49.820;6.274;2023-08-01T14:51:48;5.07;;;0.77;;
70505;SDS011;58032;49.820;6.274;2023-08-01T14:54:18;5.38;;;0.85;;
70505;SDS011;58032;49.820;6.274;2023-08-01T14:56:55;5.25;;;0.90;;